sensor_id;sensor_type;location;lat;lon;timestamp;P1;durP1;ratioP1;P2;durP2;ratioP2
37857;SDS011;23695;55.868;37.472;2022-08-19T00:00:24;14.85;;;5.63;;
37857;SDS011;23695;55.868;37.472;2022-08-19T00:02:50;11.52;;;6.18;;
37857;SDS011;23695;55.868;37.472;2022-08-19T00:05:17;10.05;;;5.65;;
37857;SDS011;23695;55.868;37.472;2022-08-19T00:07:43;14.25;;;6.93;;
37857;SDS011;23695;55.868;37.472;2022-08-19T00:10:09;18.92;;;6.25;;
37857;SDS011;23695;55.868;37.472;2022-08-19T00:12:36;19.38;;;7.35;;
37857;SDS011;23695;55.868;37.472;2022-08-19T00:15:04;12.80;;;6.85;;
37857;SDS011;23695;55.868;37.472;2022-08-19T00:17:31;13.20;;;5.80;;
37857;SDS011;23695;55.868;37.472;2022-08-19T00:19:57;17.23;;;6.70;;
37857;SDS011;23695;55.868;37.472;2022-08-19T00:22:23;9.95;;;6.18;;
37857;SDS011;23695;55.868;37.472;2022-08-19T00:24:49;10.90;;;5.90;;
37857;SDS011;23695;55.868;37.472;2022-08-19T00:27:15;15.48;;;6.22;;
37857;SDS011;23695;55.868;37.472;2022-08-19T00:29:41;11.77;;;6.60;;
37857;SDS011;23695;55.868;37.472;2022-08-19T00:32:06;18.02;;;6.28;;
37857;SDS011;23695;55.868;37.472;2022-08-19T00:34:32;10.23;;;6.53;;
37857;SDS011;23695;55.868;37.472;2022-08-19T00:36:58;13.93;;;6.30;;
37857;SDS011;23695;55.868;37.472;2022-08-19T00:39:24;11.52;;;6.28;;
37857;SDS011;23695;55.868;37.472;2022-08-19T00:41:50;13.68;;;6.53;;
37857;SDS011;23695;55.868;37.472;2022-08-19T00:44:21;15.27;;;6.45;;
37857;SDS011;23695;55.868;37.472;2022-08-19T00:46:50;16.95;;;7.40;;
37857;SDS011;23695;55.868;37.472;2022-08-19T00:52:40;15.23;;;7.20;;
37857;SDS011;23695;55.868;37.472;2022-08-19T00:55:12;13.27;;;7.65;;
37857;SDS011;23695;55.868;37.472;2022-08-19T00:57:49;20.38;;;7.65;;
37857;SDS011;23695;55.868;37.472;2022-08-19T01:00:19;18.83;;;7.38;;
37857;SDS011;23695;55.868;37.472;2022-08-19T01:02:46;25.55;;;7.70;;
37857;SDS011;23695;55.868;37.472;2022-08-19T01:05:14;19.35;;;7.85;;
37857;SDS011;23695;55.868;37.472;2022-08-19T01:07:43;16.17;;;7.93;;
37857;SDS011;23695;55.868;37.472;2022-08-19T01:10:12;13.70;;;7.53;;
37857;SDS011;23695;55.868;37.472;2022-08-19T01:12:40;16.75;;;7.90;;
37857;SDS011;23695;55.868;37.472;2022-08-19T01:15:07;17.55;;;7.75;;
37857;SDS011;23695;55.868;37.472;2022-08-19T01:17:35;17.02;;;7.75;;
37857;SDS011;23695;55.868;37.472;2022-08-19T01:20:04;13.63;;;7.75;;
37857;SDS011;23695;55.868;37.472;2022-08-19T01:23:15;16.30;;;8.05;;
37857;SDS011;23695;55.868;37.472;2022-08-19T01:25:28;19.60;;;8.85;;
37857;SDS011;23695;55.868;37.472;2022-08-19T01:27:57;20.38;;;8.45;;
37857;SDS011;23695;55.868;37.472;2022-08-19T01:30:28;22.25;;;8.73;;
37857;SDS011;23695;55.868;37.472;2022-08-19T01:32:56;12.68;;;8.15;;
37857;SDS011;23695;55.868;37.472;2022-08-19T01:35:23;21.80;;;8.77;;
37857;SDS011;23695;55.868;37.472;2022-08-19T01:37:51;13.90;;;8.48;;
37857;SDS011;23695;55.868;37.472;2022-08-19T01:40:19;17.30;;;8.98;;
37857;SDS011;23695;55.868;37.472;2022-08-19T01:42:48;19.98;;;8.57;;
37857;SDS011;23695;55.868;37.472;2022-08-19T01:45:15;16.95;;;8.75;;
37857;SDS011;23695;55.868;37.472;2022-08-19T01:47:42;22.13;;;8.48;;
37857;SDS011;23695;55.868;37.472;2022-08-19T01:50:08;20.60;;;9.07;;
37857;SDS011;23695;55.868;37.472;2022-08-19T01:52:36;20.70;;;9.20;;
37857;SDS011;23695;55.868;37.472;2022-08-19T01:55:04;21.23;;;8.77;;
37857;SDS011;23695;55.868;37.472;2022-08-19T01:57:32;18.10;;;8.05;;
37857;SDS011;23695;55.868;37.472;2022-08-19T01:59:58;15.75;;;8.10;;
37857;SDS011;23695;55.868;37.472;2022-08-19T02:02:25;15.13;;;7.57;;
37857;SDS011;23695;55.868;37.472;2022-08-19T02:04:51;20.55;;;8.30;;
37857;SDS011;23695;55.868;37.472;2022-08-19T02:07:18;18.77;;;8.40;;
37857;SDS011;23695;55.868;37.472;2022-08-19T02:09:47;15.02;;;8.30;;
37857;SDS011;23695;55.868;37.472;2022-08-19T02:12:14;14.15;;;7.97;;
37857;SDS011;23695;55.868;37.472;2022-08-19T02:14:41;16.13;;;8.65;;
37857;SDS011;23695;55.868;37.472;2022-08-19T02:17:07;16.85;;;8.60;;
37857;SDS011;23695;55.868;37.472;2022-08-19T02:19:33;19.25;;;7.80;;
37857;SDS011;23695;55.868;37.472;2022-08-19T02:21:59;18.17;;;8.40;;
37857;SDS011;23695;55.868;37.472;2022-08-19T02:24:26;13.60;;;7.75;;
37857;SDS011;23695;55.868;37.472;2022-08-19T02:26:52;18.48;;;7.53;;
37857;SDS011;23695;55.868;37.472;2022-08-19T02:29:18;17.48;;;7.90;;
37857;SDS011;23695;55.868;37.472;2022-08-19T02:31:45;18.98;;;8.45;;
37857;SDS011;23695;55.868;37.472;2022-08-19T02:34:11;15.25;;;8.07;;
37857;SDS011;23695;55.868;37.472;2022-08-19T02:36:36;15.18;;;7.47;;
37857;SDS011;23695;55.868;37.472;2022-08-19T02:39:02;18.05;;;7.65;;
37857;SDS011;23695;55.868;37.472;2022-08-19T02:41:29;18.10;;;7.57;;
37857;SDS011;23695;55.868;37.472;2022-08-19T02:43:57;18.73;;;7.13;;
37857;SDS011;23695;55.868;37.472;2022-08-19T02:46:29;17.50;;;7.13;;
37857;SDS011;23695;55.868;37.472;2022-08-19T02:48:59;14.80;;;7.32;;
37857;SDS011;23695;55.868;37.472;2022-08-19T02:51:37;17.80;;;6.90;;
37857;SDS011;23695;55.868;37.472;2022-08-19T02:54:05;17.48;;;6.93;;
37857;SDS011;23695;55.868;37.472;2022-08-19T02:56:34;17.25;;;7.00;;
37857;SDS011;23695;55.868;37.472;2022-08-19T02:59:03;20.50;;;7.30;;
37857;SDS011;23695;55.868;37.472;2022-08-19T03:01:36;13.13;;;6.97;;
37857;SDS011;23695;55.868;37.472;2022-08-19T03:04:05;16.80;;;7.25;;
37857;SDS011;23695;55.868;37.472;2022-08-19T03:06:35;12.77;;;6.78;;
37857;SDS011;23695;55.868;37.472;2022-08-19T03:09:02;18.80;;;7.32;;
37857;SDS011;23695;55.868;37.472;2022-08-19T03:11:29;17.58;;;6.75;;
37857;SDS011;23695;55.868;37.472;2022-08-19T03:13:57;15.35;;;6.53;;
37857;SDS011;23695;55.868;37.472;2022-08-19T03:16:24;19.42;;;6.88;;
37857;SDS011;23695;55.868;37.472;2022-08-19T03:18:52;20.60;;;6.82;;
37857;SDS011;23695;55.868;37.472;2022-08-19T03:21:23;11.55;;;6.32;;
37857;SDS011;23695;55.868;37.472;2022-08-19T03:23:53;14.38;;;7.57;;
37857;SDS011;23695;55.868;37.472;2022-08-19T03:26:20;15.32;;;6.85;;
37857;SDS011;23695;55.868;37.472;2022-08-19T03:28:46;12.73;;;6.93;;
37857;SDS011;23695;55.868;37.472;2022-08-19T03:31:15;19.88;;;7.10;;
37857;SDS011;23695;55.868;37.472;2022-08-19T03:33:48;20.17;;;7.45;;
37857;SDS011;23695;55.868;37.472;2022-08-19T03:36:17;17.27;;;7.38;;
37857;SDS011;23695;55.868;37.472;2022-08-19T03:38:50;14.18;;;6.47;;
37857;SDS011;23695;55.868;37.472;2022-08-19T03:41:20;19.75;;;7.47;;
37857;SDS011;23695;55.868;37.472;2022-08-19T03:43:48;15.95;;;6.93;;
37857;SDS011;23695;55.868;37.472;2022-08-19T03:46:16;19.80;;;7.00;;
37857;SDS011;23695;55.868;37.472;2022-08-19T03:48:46;15.80;;;6.88;;
37857;SDS011;23695;55.868;37.472;2022-08-19T03:51:17;14.27;;;6.88;;
37857;SDS011;23695;55.868;37.472;2022-08-19T03:53:44;18.98;;;6.75;;
37857;SDS011;23695;55.868;37.472;2022-08-19T03:56:11;16.73;;;6.00;;
37857;SDS011;23695;55.868;37.472;2022-08-19T03:58:37;15.05;;;6.60;;
37857;SDS011;23695;55.868;37.472;2022-08-19T04:01:09;11.07;;;5.88;;
37857;SDS011;23695;55.868;37.472;2022-08-19T04:03:36;14.60;;;5.82;;
37857;SDS011;23695;55.868;37.472;2022-08-19T04:06:09;13.85;;;5.82;;
37857;SDS011;23695;55.868;37.472;2022-08-19T04:08:39;10.90;;;5.68;;
37857;SDS011;23695;55.868;37.472;2022-08-19T04:11:09;16.65;;;6.53;;
37857;SDS011;23695;55.868;37.472;2022-08-19T04:13:36;12.63;;;5.93;;
37857;SDS011;23695;55.868;37.472;2022-08-19T04:16:03;11.82;;;5.18;;
37857;SDS011;23695;55.868;37.472;2022-08-19T04:18:29;12.10;;;5.85;;
37857;SDS011;23695;55.868;37.472;2022-08-19T04:20:56;10.95;;;5.13;;
37857;SDS011;23695;55.868;37.472;2022-08-19T04:23:22;17.17;;;6.22;;
37857;SDS011;23695;55.868;37.472;2022-08-19T04:25:48;10.68;;;5.30;;
37857;SDS011;23695;55.868;37.472;2022-08-19T04:28:14;8.38;;;5.05;;
37857;SDS011;23695;55.868;37.472;2022-08-19T04:30:43;16.38;;;5.40;;
37857;SDS011;23695;55.868;37.472;2022-08-19T04:33:14;13.70;;;4.93;;
37857;SDS011;23695;55.868;37.472;2022-08-19T04:35:42;15.18;;;4.47;;
37857;SDS011;23695;55.868;37.472;2022-08-19T04:38:12;12.30;;;5.63;;
37857;SDS011;23695;55.868;37.472;2022-08-19T04:40:43;13.13;;;5.20;;
37857;SDS011;23695;55.868;37.472;2022-08-19T04:43:30;10.00;;;4.32;;
37857;SDS011;23695;55.868;37.472;2022-08-19T04:45:56;9.80;;;4.65;;
37857;SDS011;23695;55.868;37.472;2022-08-19T04:48:23;14.35;;;4.38;;
37857;SDS011;23695;55.868;37.472;2022-08-19T04:50:52;12.68;;;5.30;;
37857;SDS011;23695;55.868;37.472;2022-08-19T04:53:26;16.23;;;4.65;;
37857;SDS011;23695;55.868;37.472;2022-08-19T04:55:54;7.70;;;4.15;;
37857;SDS011;23695;55.868;37.472;2022-08-19T04:58:22;15.90;;;4.97;;
37857;SDS011;23695;55.868;37.472;2022-08-19T05:00:48;6.72;;;4.10;;
37857;SDS011;23695;55.868;37.472;2022-08-19T05:03:14;16.48;;;4.30;;
37857;SDS011;23695;55.868;37.472;2022-08-19T05:05:43;10.55;;;4.07;;
37857;SDS011;23695;55.868;37.472;2022-08-19T05:08:10;13.02;;;4.40;;
37857;SDS011;23695;55.868;37.472;2022-08-19T05:10:37;15.98;;;4.25;;
37857;SDS011;23695;55.868;37.472;2022-08-19T05:13:05;7.43;;;3.72;;
37857;SDS011;23695;55.868;37.472;2022-08-19T05:15:30;12.63;;;4.20;;
37857;SDS011;23695;55.868;37.472;2022-08-19T05:17:56;9.65;;;4.40;;
37857;SDS011;23695;55.868;37.472;2022-08-19T05:20:48;14.00;;;4.30;;
37857;SDS011;23695;55.868;37.472;2022-08-19T05:23:32;12.02;;;4.35;;
37857;SDS011;23695;55.868;37.472;2022-08-19T05:25:58;13.02;;;4.07;;
37857;SDS011;23695;55.868;37.472;2022-08-19T05:28:24;10.75;;;3.95;;
37857;SDS011;23695;55.868;37.472;2022-08-19T05:30:50;10.02;;;4.30;;
37857;SDS011;23695;55.868;37.472;2022-08-19T05:33:16;9.57;;;4.60;;
37857;SDS011;23695;55.868;37.472;2022-08-19T05:35:43;15.48;;;4.32;;
37857;SDS011;23695;55.868;37.472;2022-08-19T05:38:09;10.60;;;4.63;;
37857;SDS011;23695;55.868;37.472;2022-08-19T05:40:37;12.13;;;4.53;;
37857;SDS011;23695;55.868;37.472;2022-08-19T05:43:04;9.68;;;4.57;;
37857;SDS011;23695;55.868;37.472;2022-08-19T05:45:32;11.98;;;3.70;;
37857;SDS011;23695;55.868;37.472;2022-08-19T05:48:03;10.00;;;4.72;;
37857;SDS011;23695;55.868;37.472;2022-08-19T05:50:29;16.08;;;4.55;;
37857;SDS011;23695;55.868;37.472;2022-08-19T05:52:55;16.50;;;4.38;;
37857;SDS011;23695;55.868;37.472;2022-08-19T05:55:21;11.18;;;4.40;;
37857;SDS011;23695;55.868;37.472;2022-08-19T05:57:47;12.30;;;4.82;;
37857;SDS011;23695;55.868;37.472;2022-08-19T06:00:13;13.40;;;4.55;;
37857;SDS011;23695;55.868;37.472;2022-08-19T06:02:40;10.43;;;4.22;;
37857;SDS011;23695;55.868;37.472;2022-08-19T06:05:06;12.32;;;4.60;;
37857;SDS011;23695;55.868;37.472;2022-08-19T06:07:38;9.30;;;4.28;;
37857;SDS011;23695;55.868;37.472;2022-08-19T06:12:34;11.95;;;4.50;;
37857;SDS011;23695;55.868;37.472;2022-08-19T06:15:02;12.13;;;5.07;;
37857;SDS011;23695;55.868;37.472;2022-08-19T06:17:33;9.98;;;3.90;;
37857;SDS011;23695;55.868;37.472;2022-08-19T06:20:00;13.57;;;4.35;;
37857;SDS011;23695;55.868;37.472;2022-08-19T06:22:28;16.27;;;4.68;;
37857;SDS011;23695;55.868;37.472;2022-08-19T06:24:55;17.00;;;5.18;;
37857;SDS011;23695;55.868;37.472;2022-08-19T06:27:21;24.10;;;5.00;;
37857;SDS011;23695;55.868;37.472;2022-08-19T06:29:48;14.27;;;5.15;;
37857;SDS011;23695;55.868;37.472;2022-08-19T06:32:15;18.42;;;5.25;;
37857;SDS011;23695;55.868;37.472;2022-08-19T06:34:43;17.42;;;5.35;;
37857;SDS011;23695;55.868;37.472;2022-08-19T06:37:09;16.25;;;5.10;;
37857;SDS011;23695;55.868;37.472;2022-08-19T06:39:37;17.92;;;4.97;;
37857;SDS011;23695;55.868;37.472;2022-08-19T06:42:05;13.25;;;5.30;;
37857;SDS011;23695;55.868;37.472;2022-08-19T06:44:34;15.25;;;5.07;;
37857;SDS011;23695;55.868;37.472;2022-08-19T06:47:05;18.05;;;5.55;;
37857;SDS011;23695;55.868;37.472;2022-08-19T06:49:33;23.48;;;5.70;;
37857;SDS011;23695;55.868;37.472;2022-08-19T06:52:00;19.30;;;4.88;;
37857;SDS011;23695;55.868;37.472;2022-08-19T06:54:26;13.25;;;4.85;;
37857;SDS011;23695;55.868;37.472;2022-08-19T06:56:58;18.30;;;6.05;;
37857;SDS011;23695;55.868;37.472;2022-08-19T06:59:29;15.57;;;4.72;;
37857;SDS011;23695;55.868;37.472;2022-08-19T07:01:58;19.53;;;5.67;;
37857;SDS011;23695;55.868;37.472;2022-08-19T07:04:27;22.92;;;6.35;;
37857;SDS011;23695;55.868;37.472;2022-08-19T07:07:04;20.45;;;5.55;;
37857;SDS011;23695;55.868;37.472;2022-08-19T07:09:34;14.93;;;4.93;;
37857;SDS011;23695;55.868;37.472;2022-08-19T07:12:04;14.82;;;5.43;;
37857;SDS011;23695;55.868;37.472;2022-08-19T07:14:32;20.92;;;5.07;;
37857;SDS011;23695;55.868;37.472;2022-08-19T07:19:29;25.45;;;5.43;;
37857;SDS011;23695;55.868;37.472;2022-08-19T07:21:56;19.08;;;4.57;;
37857;SDS011;23695;55.868;37.472;2022-08-19T07:24:23;14.23;;;4.38;;
37857;SDS011;23695;55.868;37.472;2022-08-19T07:26:51;11.48;;;4.55;;
37857;SDS011;23695;55.868;37.472;2022-08-19T07:29:19;16.88;;;5.00;;
37857;SDS011;23695;55.868;37.472;2022-08-19T07:31:49;11.18;;;4.93;;
37857;SDS011;23695;55.868;37.472;2022-08-19T07:34:16;10.75;;;4.88;;
37857;SDS011;23695;55.868;37.472;2022-08-19T07:36:43;9.95;;;4.22;;
37857;SDS011;23695;55.868;37.472;2022-08-19T07:39:11;12.55;;;4.60;;
37857;SDS011;23695;55.868;37.472;2022-08-19T07:41:39;8.63;;;3.80;;
37857;SDS011;23695;55.868;37.472;2022-08-19T07:44:06;12.80;;;3.95;;
37857;SDS011;23695;55.868;37.472;2022-08-19T07:46:34;9.38;;;4.05;;
37857;SDS011;23695;55.868;37.472;2022-08-19T07:49:03;9.80;;;3.78;;
37857;SDS011;23695;55.868;37.472;2022-08-19T07:51:29;14.48;;;4.22;;
37857;SDS011;23695;55.868;37.472;2022-08-19T07:53:55;12.55;;;4.03;;
37857;SDS011;23695;55.868;37.472;2022-08-19T07:56:21;10.27;;;3.90;;
37857;SDS011;23695;55.868;37.472;2022-08-19T07:58:48;8.10;;;3.60;;
37857;SDS011;23695;55.868;37.472;2022-08-19T08:01:22;9.93;;;4.38;;
37857;SDS011;23695;55.868;37.472;2022-08-19T08:03:51;8.00;;;3.72;;
37857;SDS011;23695;55.868;37.472;2022-08-19T08:06:36;12.77;;;4.15;;
37857;SDS011;23695;55.868;37.472;2022-08-19T08:09:25;11.95;;;3.85;;
37857;SDS011;23695;55.868;37.472;2022-08-19T08:11:58;10.27;;;3.58;;
37857;SDS011;23695;55.868;37.472;2022-08-19T08:14:31;13.30;;;3.77;;
37857;SDS011;23695;55.868;37.472;2022-08-19T08:17:00;10.88;;;3.50;;
37857;SDS011;23695;55.868;37.472;2022-08-19T08:19:27;14.05;;;3.58;;
37857;SDS011;23695;55.868;37.472;2022-08-19T08:21:54;13.82;;;3.75;;
37857;SDS011;23695;55.868;37.472;2022-08-19T08:24:22;14.00;;;2.85;;
37857;SDS011;23695;55.868;37.472;2022-08-19T08:26:49;16.90;;;3.15;;
37857;SDS011;23695;55.868;37.472;2022-08-19T08:29:15;8.15;;;2.80;;
37857;SDS011;23695;55.868;37.472;2022-08-19T08:31:41;13.48;;;3.42;;
37857;SDS011;23695;55.868;37.472;2022-08-19T08:34:10;11.23;;;3.97;;
37857;SDS011;23695;55.868;37.472;2022-08-19T08:36:38;13.95;;;3.65;;
37857;SDS011;23695;55.868;37.472;2022-08-19T08:39:10;13.32;;;3.63;;
37857;SDS011;23695;55.868;37.472;2022-08-19T08:41:56;11.23;;;4.07;;
37857;SDS011;23695;55.868;37.472;2022-08-19T08:44:42;15.05;;;4.07;;
37857;SDS011;23695;55.868;37.472;2022-08-19T08:47:19;10.13;;;3.43;;
37857;SDS011;23695;55.868;37.472;2022-08-19T08:49:51;10.88;;;3.63;;
37857;SDS011;23695;55.868;37.472;2022-08-19T08:52:26;12.07;;;3.58;;
37857;SDS011;23695;55.868;37.472;2022-08-19T08:54:55;10.13;;;4.13;;
37857;SDS011;23695;55.868;37.472;2022-08-19T08:57:26;12.18;;;3.80;;
37857;SDS011;23695;55.868;37.472;2022-08-19T09:00:10;9.48;;;3.60;;
37857;SDS011;23695;55.868;37.472;2022-08-19T09:02:42;7.75;;;3.83;;
37857;SDS011;23695;55.868;37.472;2022-08-19T09:05:08;7.47;;;4.25;;
37857;SDS011;23695;55.868;37.472;2022-08-19T09:12:52;10.45;;;4.43;;
37857;SDS011;23695;55.868;37.472;2022-08-19T09:15:30;8.10;;;4.28;;
37857;SDS011;23695;55.868;37.472;2022-08-19T09:18:01;8.60;;;4.05;;
37857;SDS011;23695;55.868;37.472;2022-08-19T09:20:29;14.77;;;4.63;;
37857;SDS011;23695;55.868;37.472;2022-08-19T09:22:56;11.85;;;4.70;;
37857;SDS011;23695;55.868;37.472;2022-08-19T09:25:24;14.32;;;4.60;;
37857;SDS011;23695;55.868;37.472;2022-08-19T09:27:51;12.73;;;4.18;;
37857;SDS011;23695;55.868;37.472;2022-08-19T09:30:20;9.25;;;4.47;;
37857;SDS011;23695;55.868;37.472;2022-08-19T09:32:49;9.77;;;4.57;;
37857;SDS011;23695;55.868;37.472;2022-08-19T09:35:18;18.38;;;4.40;;
37857;SDS011;23695;55.868;37.472;2022-08-19T09:37:47;10.65;;;4.65;;
37857;SDS011;23695;55.868;37.472;2022-08-19T09:40:14;16.55;;;4.07;;
37857;SDS011;23695;55.868;37.472;2022-08-19T09:42:42;11.82;;;4.25;;
37857;SDS011;23695;55.868;37.472;2022-08-19T09:45:09;8.98;;;4.30;;
37857;SDS011;23695;55.868;37.472;2022-08-19T09:47:36;11.68;;;4.43;;
37857;SDS011;23695;55.868;37.472;2022-08-19T09:50:06;18.25;;;4.38;;
37857;SDS011;23695;55.868;37.472;2022-08-19T09:52:34;16.48;;;4.00;;
37857;SDS011;23695;55.868;37.472;2022-08-19T09:55:11;13.10;;;4.03;;
37857;SDS011;23695;55.868;37.472;2022-08-19T09:57:37;9.23;;;4.28;;
37857;SDS011;23695;55.868;37.472;2022-08-19T10:00:05;10.45;;;4.25;;
37857;SDS011;23695;55.868;37.472;2022-08-19T10:02:33;17.55;;;5.13;;
37857;SDS011;23695;55.868;37.472;2022-08-19T10:05:00;10.98;;;4.40;;
37857;SDS011;23695;55.868;37.472;2022-08-19T10:07:52;15.18;;;4.80;;
37857;SDS011;23695;55.868;37.472;2022-08-19T10:10:18;11.88;;;4.45;;
37857;SDS011;23695;55.868;37.472;2022-08-19T10:12:44;15.52;;;4.30;;
37857;SDS011;23695;55.868;37.472;2022-08-19T10:15:12;14.43;;;4.35;;
37857;SDS011;23695;55.868;37.472;2022-08-19T10:17:38;10.60;;;4.50;;
37857;SDS011;23695;55.868;37.472;2022-08-19T10:20:04;12.48;;;4.63;;
37857;SDS011;23695;55.868;37.472;2022-08-19T10:22:30;14.27;;;4.90;;
37857;SDS011;23695;55.868;37.472;2022-08-19T10:24:56;16.55;;;5.13;;
37857;SDS011;23695;55.868;37.472;2022-08-19T10:27:22;11.65;;;4.68;;
37857;SDS011;23695;55.868;37.472;2022-08-19T10:29:48;20.13;;;5.05;;
37857;SDS011;23695;55.868;37.472;2022-08-19T10:32:14;10.73;;;4.95;;
37857;SDS011;23695;55.868;37.472;2022-08-19T10:34:40;10.95;;;5.22;;
37857;SDS011;23695;55.868;37.472;2022-08-19T10:37:06;8.13;;;4.40;;
37857;SDS011;23695;55.868;37.472;2022-08-19T10:39:33;10.32;;;4.85;;
37857;SDS011;23695;55.868;37.472;2022-08-19T10:42:04;11.40;;;4.72;;
37857;SDS011;23695;55.868;37.472;2022-08-19T10:44:32;15.98;;;5.20;;
37857;SDS011;23695;55.868;37.472;2022-08-19T10:47:00;8.88;;;5.43;;
37857;SDS011;23695;55.868;37.472;2022-08-19T10:49:27;10.35;;;5.43;;
37857;SDS011;23695;55.868;37.472;2022-08-19T10:51:53;18.60;;;5.57;;
37857;SDS011;23695;55.868;37.472;2022-08-19T10:54:37;14.20;;;5.45;;
37857;SDS011;23695;55.868;37.472;2022-08-19T10:57:22;14.20;;;5.60;;
37857;SDS011;23695;55.868;37.472;2022-08-19T10:59:55;13.93;;;5.20;;
37857;SDS011;23695;55.868;37.472;2022-08-19T11:02:21;15.55;;;4.97;;
37857;SDS011;23695;55.868;37.472;2022-08-19T11:04:47;18.75;;;4.50;;
37857;SDS011;23695;55.868;37.472;2022-08-19T11:07:15;11.15;;;4.45;;
37857;SDS011;23695;55.868;37.472;2022-08-19T11:09:42;9.65;;;4.00;;
37857;SDS011;23695;55.868;37.472;2022-08-19T11:12:09;11.32;;;4.40;;
37857;SDS011;23695;55.868;37.472;2022-08-19T11:14:38;11.98;;;4.15;;
37857;SDS011;23695;55.868;37.472;2022-08-19T11:17:04;7.00;;;4.07;;
37857;SDS011;23695;55.868;37.472;2022-08-19T11:19:30;16.08;;;4.30;;
37857;SDS011;23695;55.868;37.472;2022-08-19T11:21:56;20.23;;;5.10;;
37857;SDS011;23695;55.868;37.472;2022-08-19T11:24:24;12.20;;;3.65;;
37857;SDS011;23695;55.868;37.472;2022-08-19T11:26:51;13.63;;;4.25;;
37857;SDS011;23695;55.868;37.472;2022-08-19T11:29:22;10.18;;;3.20;;
37857;SDS011;23695;55.868;37.472;2022-08-19T11:31:52;15.32;;;3.85;;
37857;SDS011;23695;55.868;37.472;2022-08-19T11:34:19;9.80;;;3.10;;
37857;SDS011;23695;55.868;37.472;2022-08-19T11:36:47;7.95;;;3.42;;
37857;SDS011;23695;55.868;37.472;2022-08-19T11:39:15;6.47;;;3.55;;
37857;SDS011;23695;55.868;37.472;2022-08-19T11:41:43;15.93;;;3.85;;
37857;SDS011;23695;55.868;37.472;2022-08-19T11:44:09;7.07;;;3.55;;
37857;SDS011;23695;55.868;37.472;2022-08-19T11:46:35;7.60;;;3.33;;
37857;SDS011;23695;55.868;37.472;2022-08-19T11:49:03;12.55;;;3.70;;
37857;SDS011;23695;55.868;37.472;2022-08-19T11:51:30;7.72;;;3.47;;
37857;SDS011;23695;55.868;37.472;2022-08-19T11:53:57;13.73;;;3.60;;
37857;SDS011;23695;55.868;37.472;2022-08-19T11:56:24;7.30;;;3.25;;
37857;SDS011;23695;55.868;37.472;2022-08-19T11:58:52;11.52;;;3.75;;
37857;SDS011;23695;55.868;37.472;2022-08-19T12:01:21;12.43;;;3.72;;
37857;SDS011;23695;55.868;37.472;2022-08-19T12:03:48;9.93;;;3.60;;
37857;SDS011;23695;55.868;37.472;2022-08-19T12:06:17;8.82;;;3.30;;
37857;SDS011;23695;55.868;37.472;2022-08-19T12:08:45;11.97;;;3.20;;
37857;SDS011;23695;55.868;37.472;2022-08-19T12:11:12;18.50;;;3.40;;
37857;SDS011;23695;55.868;37.472;2022-08-19T12:13:39;10.18;;;2.75;;
37857;SDS011;23695;55.868;37.472;2022-08-19T12:16:10;7.13;;;3.00;;
37857;SDS011;23695;55.868;37.472;2022-08-19T12:18:40;14.20;;;3.13;;
37857;SDS011;23695;55.868;37.472;2022-08-19T12:21:09;8.75;;;3.03;;
37857;SDS011;23695;55.868;37.472;2022-08-19T12:23:36;7.65;;;3.47;;
37857;SDS011;23695;55.868;37.472;2022-08-19T12:26:03;6.90;;;3.20;;
37857;SDS011;23695;55.868;37.472;2022-08-19T12:28:30;8.38;;;3.10;;
37857;SDS011;23695;55.868;37.472;2022-08-19T12:30:56;8.85;;;2.80;;
37857;SDS011;23695;55.868;37.472;2022-08-19T12:33:22;14.52;;;3.20;;
37857;SDS011;23695;55.868;37.472;2022-08-19T12:35:51;9.05;;;3.20;;
37857;SDS011;23695;55.868;37.472;2022-08-19T12:38:17;8.38;;;3.30;;
37857;SDS011;23695;55.868;37.472;2022-08-19T12:40:46;9.00;;;2.83;;
37857;SDS011;23695;55.868;37.472;2022-08-19T12:43:14;8.93;;;2.65;;
37857;SDS011;23695;55.868;37.472;2022-08-19T12:45:41;8.98;;;2.90;;
37857;SDS011;23695;55.868;37.472;2022-08-19T12:48:08;6.60;;;3.25;;
37857;SDS011;23695;55.868;37.472;2022-08-19T12:50:34;6.22;;;2.78;;
37857;SDS011;23695;55.868;37.472;2022-08-19T12:53:00;3.47;;;2.63;;
37857;SDS011;23695;55.868;37.472;2022-08-19T12:55:26;7.55;;;3.42;;
37857;SDS011;23695;55.868;37.472;2022-08-19T12:57:54;7.22;;;3.00;;
37857;SDS011;23695;55.868;37.472;2022-08-19T13:00:20;11.05;;;3.58;;
37857;SDS011;23695;55.868;37.472;2022-08-19T13:02:47;10.30;;;3.45;;
37857;SDS011;23695;55.868;37.472;2022-08-19T13:05:16;19.20;;;3.58;;
37857;SDS011;23695;55.868;37.472;2022-08-19T13:07:48;9.10;;;3.65;;
37857;SDS011;23695;55.868;37.472;2022-08-19T13:10:16;12.10;;;3.53;;
37857;SDS011;23695;55.868;37.472;2022-08-19T13:12:45;9.35;;;4.13;;
37857;SDS011;23695;55.868;37.472;2022-08-19T13:15:13;12.15;;;3.85;;
37857;SDS011;23695;55.868;37.472;2022-08-19T13:17:40;9.65;;;4.57;;
37857;SDS011;23695;55.868;37.472;2022-08-19T13:20:10;20.33;;;4.40;;
37857;SDS011;23695;55.868;37.472;2022-08-19T13:22:36;10.98;;;3.53;;
37857;SDS011;23695;55.868;37.472;2022-08-19T13:25:05;10.80;;;4.25;;
37857;SDS011;23695;55.868;37.472;2022-08-19T13:27:32;7.53;;;4.07;;
37857;SDS011;23695;55.868;37.472;2022-08-19T13:29:58;16.05;;;4.50;;
37857;SDS011;23695;55.868;37.472;2022-08-19T13:32:43;12.63;;;4.30;;
37857;SDS011;23695;55.868;37.472;2022-08-19T13:35:28;13.48;;;4.07;;
37857;SDS011;23695;55.868;37.472;2022-08-19T13:37:54;14.13;;;3.88;;
37857;SDS011;23695;55.868;37.472;2022-08-19T13:40:20;8.05;;;3.30;;
37857;SDS011;23695;55.868;37.472;2022-08-19T13:42:50;8.70;;;3.35;;
37857;SDS011;23695;55.868;37.472;2022-08-19T13:45:21;8.68;;;3.55;;
37857;SDS011;23695;55.868;37.472;2022-08-19T13:47:50;7.18;;;3.50;;
37857;SDS011;23695;55.868;37.472;2022-08-19T13:50:22;9.00;;;3.70;;
37857;SDS011;23695;55.868;37.472;2022-08-19T13:52:50;7.45;;;3.88;;
37857;SDS011;23695;55.868;37.472;2022-08-19T13:55:17;14.63;;;3.60;;
37857;SDS011;23695;55.868;37.472;2022-08-19T13:57:44;12.07;;;3.83;;
37857;SDS011;23695;55.868;37.472;2022-08-19T14:00:12;12.65;;;4.13;;
37857;SDS011;23695;55.868;37.472;2022-08-19T14:02:43;9.27;;;3.65;;
37857;SDS011;23695;55.868;37.472;2022-08-19T14:05:10;11.45;;;4.32;;
37857;SDS011;23695;55.868;37.472;2022-08-19T14:07:38;9.57;;;3.75;;
37857;SDS011;23695;55.868;37.472;2022-08-19T14:10:05;13.52;;;3.38;;
37857;SDS011;23695;55.868;37.472;2022-08-19T14:12:32;12.55;;;3.58;;
37857;SDS011;23695;55.868;37.472;2022-08-19T14:14:59;8.98;;;3.58;;
37857;SDS011;23695;55.868;37.472;2022-08-19T14:17:24;17.15;;;3.63;;
37857;SDS011;23695;55.868;37.472;2022-08-19T14:19:57;12.90;;;3.35;;
37857;SDS011;23695;55.868;37.472;2022-08-19T14:22:25;9.30;;;3.38;;
37857;SDS011;23695;55.868;37.472;2022-08-19T14:24:51;9.32;;;3.97;;
37857;SDS011;23695;55.868;37.472;2022-08-19T14:27:17;11.48;;;2.95;;
37857;SDS011;23695;55.868;37.472;2022-08-19T14:29:43;10.98;;;3.22;;
37857;SDS011;23695;55.868;37.472;2022-08-19T14:32:09;9.80;;;3.40;;
37857;SDS011;23695;55.868;37.472;2022-08-19T14:34:35;12.18;;;3.55;;
37857;SDS011;23695;55.868;37.472;2022-08-19T14:37:02;9.05;;;3.83;;
37857;SDS011;23695;55.868;37.472;2022-08-19T14:39:28;8.90;;;2.95;;
37857;SDS011;23695;55.868;37.472;2022-08-19T14:41:54;15.52;;;3.42;;
37857;SDS011;23695;55.868;37.472;2022-08-19T14:44:20;15.38;;;3.95;;